sensor_id;sensor_type;location;lat;lon;timestamp;P1;durP1;ratioP1;P2;durP2;ratioP2
16994;SDS011;8614;48.522;9.206;2023-08-07T00:01:37;9.30;;;8.80;;
16994;SDS011;8614;48.522;9.206;2023-08-07T00:04:04;9.57;;;8.93;;
16994;SDS011;8614;48.522;9.206;2023-08-07T00:06:32;9.20;;;8.60;;
16994;SDS011;8614;48.522;9.206;2023-08-07T00:08:59;9.50;;;8.90;;
16994;SDS011;8614;48.522;9.206;2023-08-07T00:11:26;9.20;;;8.60;;
16994;SDS011;8614;48.522;9.206;2023-08-07T00:13:53;9.00;;;8.40;;
16994;SDS011;8614;48.522;9.206;2023-08-07T00:16:20;9.20;;;8.60;;
16994;SDS011;8614;48.522;9.206;2023-08-07T00:18:47;9.80;;;9.20;;
16994;SDS011;8614;48.522;9.206;2023-08-07T00:21:14;10.07;;;9.03;;
16994;SDS011;8614;48.522;9.206;2023-08-07T00:23:42;9.70;;;9.00;;
16994;SDS011;8614;48.522;9.206;2023-08-07T00:26:09;9.60;;;9.00;;
16994;SDS011;8614;48.522;9.206;2023-08-07T00:28:36;9.73;;;9.13;;
16994;SDS011;8614;48.522;9.206;2023-08-07T00:31:03;10.27;;;9.63;;
16994;SDS011;8614;48.522;9.206;2023-08-07T00:33:29;10.13;;;9.53;;
16994;SDS011;8614;48.522;9.206;2023-08-07T00:35:56;10.10;;;9.40;;
16994;SDS011;8614;48.522;9.206;2023-08-07T00:38:23;9.50;;;9.00;;
16994;SDS011;8614;48.522;9.206;2023-08-07T00:40:51;9.90;;;9.20;;
16994;SDS011;8614;48.522;9.206;2023-08-07T00:43:18;9.87;;;9.17;;
16994;SDS011;8614;48.522;9.206;2023-08-07T00:45:46;10.10;;;9.50;;
16994;SDS011;8614;48.522;9.206;2023-08-07T00:48:14;9.60;;;9.00;;
16994;SDS011;8614;48.522;9.206;2023-08-07T00:50:42;10.20;;;9.50;;
16994;SDS011;8614;48.522;9.206;2023-08-07T00:53:10;9.80;;;9.20;;
16994;SDS011;8614;48.522;9.206;2023-08-07T00:55:36;9.93;;;9.23;;
16994;SDS011;8614;48.522;9.206;2023-08-07T00:58:05;10.17;;;9.50;;
16994;SDS011;8614;48.522;9.206;2023-08-07T01:00:31;9.80;;;9.17;;
16994;SDS011;8614;48.522;9.206;2023-08-07T01:02:58;10.10;;;9.40;;
16994;SDS011;8614;48.522;9.206;2023-08-07T01:05:26;10.20;;;9.60;;
16994;SDS011;8614;48.522;9.206;2023-08-07T01:07:53;10.10;;;9.50;;
16994;SDS011;8614;48.522;9.206;2023-08-07T01:10:22;10.10;;;9.40;;
16994;SDS011;8614;48.522;9.206;2023-08-07T01:13:00;9.90;;;9.30;;
16994;SDS011;8614;48.522;9.206;2023-08-07T01:15:34;9.50;;;8.90;;
16994;SDS011;8614;48.522;9.206;2023-08-07T01:18:04;9.63;;;9.03;;
16994;SDS011;8614;48.522;9.206;2023-08-07T01:20:33;9.47;;;8.87;;
16994;SDS011;8614;48.522;9.206;2023-08-07T01:23:02;9.20;;;8.70;;
16994;SDS011;8614;48.522;9.206;2023-08-07T01:25:29;9.93;;;9.27;;
16994;SDS011;8614;48.522;9.206;2023-08-07T01:27:59;9.80;;;9.20;;
16994;SDS011;8614;48.522;9.206;2023-08-07T01:30:33;9.87;;;9.07;;
16994;SDS011;8614;48.522;9.206;2023-08-07T01:33:04;9.23;;;8.73;;
16994;SDS011;8614;48.522;9.206;2023-08-07T01:35:39;9.33;;;8.63;;
16994;SDS011;8614;48.522;9.206;2023-08-07T01:38:09;9.20;;;8.60;;
16994;SDS011;8614;48.522;9.206;2023-08-07T01:40:39;9.40;;;8.77;;
16994;SDS011;8614;48.522;9.206;2023-08-07T01:43:08;9.27;;;8.67;;
16994;SDS011;8614;48.522;9.206;2023-08-07T01:45:35;9.50;;;8.90;;
16994;SDS011;8614;48.522;9.206;2023-08-07T01:48:02;9.50;;;8.83;;
16994;SDS011;8614;48.522;9.206;2023-08-07T01:50:29;9.23;;;8.63;;
16994;SDS011;8614;48.522;9.206;2023-08-07T01:52:57;10.30;;;9.57;;
16994;SDS011;8614;48.522;9.206;2023-08-07T01:55:25;10.27;;;9.57;;
16994;SDS011;8614;48.522;9.206;2023-08-07T01:57:52;10.80;;;10.10;;
16994;SDS011;8614;48.522;9.206;2023-08-07T02:00:19;10.70;;;10.03;;
16994;SDS011;8614;48.522;9.206;2023-08-07T02:02:46;10.00;;;9.40;;
16994;SDS011;8614;48.522;9.206;2023-08-07T02:05:13;10.07;;;9.37;;
16994;SDS011;8614;48.522;9.206;2023-08-07T02:07:41;10.07;;;9.47;;
16994;SDS011;8614;48.522;9.206;2023-08-07T02:10:08;9.80;;;9.20;;
16994;SDS011;8614;48.522;9.206;2023-08-07T02:12:36;10.07;;;9.40;;
16994;SDS011;8614;48.522;9.206;2023-08-07T02:15:05;10.23;;;9.63;;
16994;SDS011;8614;48.522;9.206;2023-08-07T02:17:32;9.83;;;9.13;;
16994;SDS011;8614;48.522;9.206;2023-08-07T02:20:00;10.87;;;9.77;;
16994;SDS011;8614;48.522;9.206;2023-08-07T02:22:27;10.40;;;9.80;;
16994;SDS011;8614;48.522;9.206;2023-08-07T02:24:54;10.40;;;9.70;;
16994;SDS011;8614;48.522;9.206;2023-08-07T02:27:21;10.17;;;9.57;;
16994;SDS011;8614;48.522;9.206;2023-08-07T02:29:49;9.90;;;9.30;;
16994;SDS011;8614;48.522;9.206;2023-08-07T02:32:16;9.50;;;8.90;;
16994;SDS011;8614;48.522;9.206;2023-08-07T02:34:44;9.70;;;9.10;;
16994;SDS011;8614;48.522;9.206;2023-08-07T02:37:11;9.83;;;9.10;;
16994;SDS011;8614;48.522;9.206;2023-08-07T02:39:38;9.70;;;9.10;;
16994;SDS011;8614;48.522;9.206;2023-08-07T02:42:05;10.20;;;9.50;;
16994;SDS011;8614;48.522;9.206;2023-08-07T02:44:32;10.00;;;9.30;;
16994;SDS011;8614;48.522;9.206;2023-08-07T02:47:00;9.57;;;8.97;;
16994;SDS011;8614;48.522;9.206;2023-08-07T02:49:27;9.80;;;9.10;;
16994;SDS011;8614;48.522;9.206;2023-08-07T02:51:54;10.40;;;9.70;;
16994;SDS011;8614;48.522;9.206;2023-08-07T02:54:21;10.50;;;9.80;;
16994;SDS011;8614;48.522;9.206;2023-08-07T02:56:47;10.27;;;9.67;;
16994;SDS011;8614;48.522;9.206;2023-08-07T02:59:14;9.93;;;9.33;;
16994;SDS011;8614;48.522;9.206;2023-08-07T03:01:41;10.43;;;9.73;;
16994;SDS011;8614;48.522;9.206;2023-08-07T03:04:10;10.40;;;9.60;;
16994;SDS011;8614;48.522;9.206;2023-08-07T03:06:37;9.67;;;9.07;;
16994;SDS011;8614;48.522;9.206;2023-08-07T03:09:03;9.90;;;9.20;;
16994;SDS011;8614;48.522;9.206;2023-08-07T03:11:30;9.70;;;9.00;;
16994;SDS011;8614;48.522;9.206;2023-08-07T03:13:57;9.73;;;8.97;;
16994;SDS011;8614;48.522;9.206;2023-08-07T03:16:24;9.10;;;8.60;;
16994;SDS011;8614;48.522;9.206;2023-08-07T03:18:51;9.30;;;8.60;;
16994;SDS011;8614;48.522;9.206;2023-08-07T03:21:19;9.37;;;8.77;;
16994;SDS011;8614;48.522;9.206;2023-08-07T03:23:46;9.10;;;8.50;;
16994;SDS011;8614;48.522;9.206;2023-08-07T03:26:12;9.73;;;9.00;;
16994;SDS011;8614;48.522;9.206;2023-08-07T03:28:40;9.43;;;8.83;;
16994;SDS011;8614;48.522;9.206;2023-08-07T03:31:07;9.63;;;9.03;;
16994;SDS011;8614;48.522;9.206;2023-08-07T03:33:36;9.70;;;8.80;;
16994;SDS011;8614;48.522;9.206;2023-08-07T03:36:03;9.17;;;8.57;;
16994;SDS011;8614;48.522;9.206;2023-08-07T03:38:32;9.27;;;8.70;;
16994;SDS011;8614;48.522;9.206;2023-08-07T03:40:59;9.87;;;9.20;;
16994;SDS011;8614;48.522;9.206;2023-08-07T03:43:28;9.27;;;8.67;;
16994;SDS011;8614;48.522;9.206;2023-08-07T03:45:55;10.00;;;9.40;;
16994;SDS011;8614;48.522;9.206;2023-08-07T03:48:22;9.57;;;8.87;;
16994;SDS011;8614;48.522;9.206;2023-08-07T03:50:49;9.57;;;8.97;;
16994;SDS011;8614;48.522;9.206;2023-08-07T03:53:17;10.17;;;9.47;;
16994;SDS011;8614;48.522;9.206;2023-08-07T03:55:50;9.10;;;8.60;;
16994;SDS011;8614;48.522;9.206;2023-08-07T03:58:20;9.40;;;8.80;;
16994;SDS011;8614;48.522;9.206;2023-08-07T04:00:46;10.47;;;9.83;;
16994;SDS011;8614;48.522;9.206;2023-08-07T04:03:13;9.27;;;8.67;;
16994;SDS011;8614;48.522;9.206;2023-08-07T04:05:40;9.80;;;9.00;;
16994;SDS011;8614;48.522;9.206;2023-08-07T04:08:07;10.20;;;9.60;;
16994;SDS011;8614;48.522;9.206;2023-08-07T04:10:34;10.13;;;9.53;;
16994;SDS011;8614;48.522;9.206;2023-08-07T04:13:02;10.33;;;9.73;;
16994;SDS011;8614;48.522;9.206;2023-08-07T04:15:29;10.30;;;9.70;;
16994;SDS011;8614;48.522;9.206;2023-08-07T04:17:56;10.43;;;9.73;;
16994;SDS011;8614;48.522;9.206;2023-08-07T04:20:23;10.90;;;10.10;;
16994;SDS011;8614;48.522;9.206;2023-08-07T04:22:50;10.70;;;10.00;;
16994;SDS011;8614;48.522;9.206;2023-08-07T04:25:20;10.40;;;9.60;;
16994;SDS011;8614;48.522;9.206;2023-08-07T04:27:47;10.83;;;10.03;;
16994;SDS011;8614;48.522;9.206;2023-08-07T04:30:15;10.40;;;9.80;;
16994;SDS011;8614;48.522;9.206;2023-08-07T04:32:42;11.03;;;10.33;;
16994;SDS011;8614;48.522;9.206;2023-08-07T04:35:09;10.83;;;10.13;;
16994;SDS011;8614;48.522;9.206;2023-08-07T04:37:35;10.67;;;9.97;;
16994;SDS011;8614;48.522;9.206;2023-08-07T04:40:03;10.80;;;10.20;;
16994;SDS011;8614;48.522;9.206;2023-08-07T04:42:30;11.10;;;10.40;;
16994;SDS011;8614;48.522;9.206;2023-08-07T04:44:57;11.67;;;10.97;;
16994;SDS011;8614;48.522;9.206;2023-08-07T04:47:27;11.03;;;10.37;;
16994;SDS011;8614;48.522;9.206;2023-08-07T04:49:54;11.60;;;10.67;;
16994;SDS011;8614;48.522;9.206;2023-08-07T04:52:21;11.20;;;10.50;;
16994;SDS011;8614;48.522;9.206;2023-08-07T04:54:48;11.37;;;10.67;;
16994;SDS011;8614;48.522;9.206;2023-08-07T04:57:14;11.10;;;10.40;;
16994;SDS011;8614;48.522;9.206;2023-08-07T04:59:41;10.63;;;10.03;;
16994;SDS011;8614;48.522;9.206;2023-08-07T05:02:08;10.90;;;10.20;;
16994;SDS011;8614;48.522;9.206;2023-08-07T05:04:36;11.03;;;10.23;;
16994;SDS011;8614;48.522;9.206;2023-08-07T05:07:06;11.83;;;10.70;;
16994;SDS011;8614;48.522;9.206;2023-08-07T05:09:33;11.37;;;10.70;;
16994;SDS011;8614;48.522;9.206;2023-08-07T05:12:00;11.37;;;10.67;;
16994;SDS011;8614;48.522;9.206;2023-08-07T05:14:27;11.50;;;10.90;;
16994;SDS011;8614;48.522;9.206;2023-08-07T05:16:55;11.47;;;10.70;;
16994;SDS011;8614;48.522;9.206;2023-08-07T05:19:32;11.50;;;10.80;;
16994;SDS011;8614;48.522;9.206;2023-08-07T05:22:00;11.10;;;10.50;;
16994;SDS011;8614;48.522;9.206;2023-08-07T05:24:27;10.87;;;10.17;;
16994;SDS011;8614;48.522;9.206;2023-08-07T05:26:59;11.37;;;10.60;;
16994;SDS011;8614;48.522;9.206;2023-08-07T05:29:26;11.23;;;10.43;;
16994;SDS011;8614;48.522;9.206;2023-08-07T05:31:53;11.35;;;10.65;;
16994;SDS011;8614;48.522;9.206;2023-08-07T05:34:19;10.27;;;9.67;;
16994;SDS011;8614;48.522;9.206;2023-08-07T05:36:46;10.90;;;10.20;;
16994;SDS011;8614;48.522;9.206;2023-08-07T05:39:15;11.40;;;10.70;;
16994;SDS011;8614;48.522;9.206;2023-08-07T05:41:42;10.43;;;9.83;;
16994;SDS011;8614;48.522;9.206;2023-08-07T05:44:09;11.77;;;11.07;;
16994;SDS011;8614;48.522;9.206;2023-08-07T05:46:35;10.23;;;9.53;;
16994;SDS011;8614;48.522;9.206;2023-08-07T05:49:02;10.90;;;10.20;;
16994;SDS011;8614;48.522;9.206;2023-08-07T05:51:29;11.13;;;10.33;;
16994;SDS011;8614;48.522;9.206;2023-08-07T05:53:56;10.63;;;9.90;;
16994;SDS011;8614;48.522;9.206;2023-08-07T05:56:24;10.53;;;9.83;;
16994;SDS011;8614;48.522;9.206;2023-08-07T05:58:51;10.50;;;9.80;;
16994;SDS011;8614;48.522;9.206;2023-08-07T06:01:17;10.67;;;9.97;;
16994;SDS011;8614;48.522;9.206;2023-08-07T06:03:44;5.10;;;3.70;;
16994;SDS011;8614;48.522;9.206;2023-08-07T06:06:11;4.20;;;3.90;;
16994;SDS011;8614;48.522;9.206;2023-08-07T06:08:38;3.57;;;3.27;;
16994;SDS011;8614;48.522;9.206;2023-08-07T06:11:05;3.87;;;3.57;;
16994;SDS011;8614;48.522;9.206;2023-08-07T06:13:34;4.30;;;3.90;;
16994;SDS011;8614;48.522;9.206;2023-08-07T06:16:01;4.00;;;3.70;;
16994;SDS011;8614;48.522;9.206;2023-08-07T06:18:28;3.23;;;2.97;;
16994;SDS011;8614;48.522;9.206;2023-08-07T06:20:55;3.27;;;3.00;;
16994;SDS011;8614;48.522;9.206;2023-08-07T06:23:22;2.90;;;2.70;;
16994;SDS011;8614;48.522;9.206;2023-08-07T06:25:49;3.13;;;2.93;;
16994;SDS011;8614;48.522;9.206;2023-08-07T06:28:16;4.50;;;3.27;;
16994;SDS011;8614;48.522;9.206;2023-08-07T06:30:44;3.73;;;3.43;;
16994;SDS011;8614;48.522;9.206;2023-08-07T06:33:11;3.67;;;2.90;;
16994;SDS011;8614;48.522;9.206;2023-08-07T06:35:38;3.37;;;3.07;;
16994;SDS011;8614;48.522;9.206;2023-08-07T06:38:05;3.50;;;3.20;;
16994;SDS011;8614;48.522;9.206;2023-08-07T06:40:34;3.27;;;2.97;;
16994;SDS011;8614;48.522;9.206;2023-08-07T06:43:01;3.10;;;2.90;;
16994;SDS011;8614;48.522;9.206;2023-08-07T06:45:28;7.63;;;6.93;;
16994;SDS011;8614;48.522;9.206;2023-08-07T06:47:56;9.70;;;9.10;;
16994;SDS011;8614;48.522;9.206;2023-08-07T06:50:24;9.37;;;8.77;;
16994;SDS011;8614;48.522;9.206;2023-08-07T06:52:50;9.63;;;9.03;;
16994;SDS011;8614;48.522;9.206;2023-08-07T06:55:17;3.90;;;3.70;;
16994;SDS011;8614;48.522;9.206;2023-08-07T06:57:44;4.37;;;4.07;;
16994;SDS011;8614;48.522;9.206;2023-08-07T07:00:11;4.80;;;4.40;;
16994;SDS011;8614;48.522;9.206;2023-08-07T07:02:38;3.90;;;3.60;;
16994;SDS011;8614;48.522;9.206;2023-08-07T07:05:07;8.80;;;8.10;;
16994;SDS011;8614;48.522;9.206;2023-08-07T07:07:34;4.33;;;3.80;;
16994;SDS011;8614;48.522;9.206;2023-08-07T07:10:01;3.83;;;3.30;;
16994;SDS011;8614;48.522;9.206;2023-08-07T07:12:28;8.97;;;8.37;;
16994;SDS011;8614;48.522;9.206;2023-08-07T07:14:55;2.97;;;2.77;;
16994;SDS011;8614;48.522;9.206;2023-08-07T07:17:21;2.80;;;2.60;;
16994;SDS011;8614;48.522;9.206;2023-08-07T07:19:48;3.70;;;3.40;;
16994;SDS011;8614;48.522;9.206;2023-08-07T07:22:16;3.60;;;3.30;;
16994;SDS011;8614;48.522;9.206;2023-08-07T07:24:46;3.53;;;2.77;;
16994;SDS011;8614;48.522;9.206;2023-08-07T07:27:12;3.50;;;2.93;;
16994;SDS011;8614;48.522;9.206;2023-08-07T07:29:39;3.37;;;3.00;;
16994;SDS011;8614;48.522;9.206;2023-08-07T07:32:06;4.20;;;2.77;;
16994;SDS011;8614;48.522;9.206;2023-08-07T07:34:36;3.40;;;3.10;;
16994;SDS011;8614;48.522;9.206;2023-08-07T07:37:03;6.97;;;6.40;;
16994;SDS011;8614;48.522;9.206;2023-08-07T07:39:31;9.57;;;8.83;;
16994;SDS011;8614;48.522;9.206;2023-08-07T07:42:00;9.00;;;8.40;;
16994;SDS011;8614;48.522;9.206;2023-08-07T07:44:27;10.90;;;10.20;;
16994;SDS011;8614;48.522;9.206;2023-08-07T07:46:54;10.83;;;10.13;;
16994;SDS011;8614;48.522;9.206;2023-08-07T07:49:21;9.10;;;8.60;;
16994;SDS011;8614;48.522;9.206;2023-08-07T07:51:48;10.03;;;9.33;;
16994;SDS011;8614;48.522;9.206;2023-08-07T07:54:14;10.33;;;9.63;;
16994;SDS011;8614;48.522;9.206;2023-08-07T07:56:43;10.50;;;9.80;;
16994;SDS011;8614;48.522;9.206;2023-08-07T07:59:09;9.20;;;8.60;;
16994;SDS011;8614;48.522;9.206;2023-08-07T08:01:37;9.17;;;8.57;;
16994;SDS011;8614;48.522;9.206;2023-08-07T08:04:04;9.80;;;9.10;;
16994;SDS011;8614;48.522;9.206;2023-08-07T08:06:31;8.27;;;7.53;;
16994;SDS011;8614;48.522;9.206;2023-08-07T08:08:57;8.30;;;7.70;;
16994;SDS011;8614;48.522;9.206;2023-08-07T08:11:26;9.40;;;8.43;;
16994;SDS011;8614;48.522;9.206;2023-08-07T08:13:54;9.10;;;8.60;;
16994;SDS011;8614;48.522;9.206;2023-08-07T08:16:21;3.77;;;3.57;;
16994;SDS011;8614;48.522;9.206;2023-08-07T08:18:48;4.10;;;2.97;;
16994;SDS011;8614;48.522;9.206;2023-08-07T08:21:15;3.80;;;2.60;;
16994;SDS011;8614;48.522;9.206;2023-08-07T08:23:41;73.43;;;8.07;;
16994;SDS011;8614;48.522;9.206;2023-08-07T08:26:16;4.37;;;2.70;;
16994;SDS011;8614;48.522;9.206;2023-08-07T08:28:42;6.23;;;2.70;;
16994;SDS011;8614;48.522;9.206;2023-08-07T08:31:11;2.80;;;2.60;;
16994;SDS011;8614;48.522;9.206;2023-08-07T08:33:37;3.33;;;2.70;;
16994;SDS011;8614;48.522;9.206;2023-08-07T08:36:05;6.83;;;6.43;;
16994;SDS011;8614;48.522;9.206;2023-08-07T08:38:32;7.40;;;6.90;;
16994;SDS011;8614;48.522;9.206;2023-08-07T08:40:59;9.37;;;8.77;;
16994;SDS011;8614;48.522;9.206;2023-08-07T08:43:29;9.40;;;8.60;;
16994;SDS011;8614;48.522;9.206;2023-08-07T08:46:01;7.13;;;6.53;;
16994;SDS011;8614;48.522;9.206;2023-08-07T08:48:31;6.27;;;5.87;;
16994;SDS011;8614;48.522;9.206;2023-08-07T08:51:02;3.23;;;2.30;;
16994;SDS011;8614;48.522;9.206;2023-08-07T08:53:30;3.27;;;3.07;;
16994;SDS011;8614;48.522;9.206;2023-08-07T08:55:57;2.70;;;2.50;;
16994;SDS011;8614;48.522;9.206;2023-08-07T08:58:25;2.93;;;2.70;;
16994;SDS011;8614;48.522;9.206;2023-08-07T09:00:53;6.10;;;5.70;;
16994;SDS011;8614;48.522;9.206;2023-08-07T09:03:20;6.60;;;6.20;;
16994;SDS011;8614;48.522;9.206;2023-08-07T09:05:49;4.67;;;4.33;;
16994;SDS011;8614;48.522;9.206;2023-08-07T09:08:19;5.47;;;5.17;;
16994;SDS011;8614;48.522;9.206;2023-08-07T09:10:47;7.10;;;6.70;;
16994;SDS011;8614;48.522;9.206;2023-08-07T09:13:14;7.53;;;7.07;;
16994;SDS011;8614;48.522;9.206;2023-08-07T09:15:46;7.33;;;6.73;;
16994;SDS011;8614;48.522;9.206;2023-08-07T09:18:15;7.23;;;6.80;;
16994;SDS011;8614;48.522;9.206;2023-08-07T09:20:43;8.17;;;7.57;;
16994;SDS011;8614;48.522;9.206;2023-08-07T09:23:11;7.50;;;7.00;;
16994;SDS011;8614;48.522;9.206;2023-08-07T09:25:38;8.20;;;7.70;;
16994;SDS011;8614;48.522;9.206;2023-08-07T09:28:05;8.00;;;7.50;;
16994;SDS011;8614;48.522;9.206;2023-08-07T09:30:32;9.13;;;8.53;;
16994;SDS011;8614;48.522;9.206;2023-08-07T09:33:02;8.00;;;7.50;;
16994;SDS011;8614;48.522;9.206;2023-08-07T09:35:30;2.63;;;2.53;;
16994;SDS011;8614;48.522;9.206;2023-08-07T09:37:58;4.13;;;3.73;;
16994;SDS011;8614;48.522;9.206;2023-08-07T09:40:26;2.77;;;2.50;;
16994;SDS011;8614;48.522;9.206;2023-08-07T09:42:55;6.03;;;5.63;;
16994;SDS011;8614;48.522;9.206;2023-08-07T09:45:23;3.27;;;3.07;;
16994;SDS011;8614;48.522;9.206;2023-08-07T09:47:57;2.80;;;2.60;;
16994;SDS011;8614;48.522;9.206;2023-08-07T09:50:25;4.07;;;3.77;;
16994;SDS011;8614;48.522;9.206;2023-08-07T09:52:53;2.83;;;2.60;;
16994;SDS011;8614;48.522;9.206;2023-08-07T09:55:20;6.07;;;5.47;;
16994;SDS011;8614;48.522;9.206;2023-08-07T09:57:48;2.57;;;2.43;;
16994;SDS011;8614;48.522;9.206;2023-08-07T10:00:16;7.37;;;6.97;;
16994;SDS011;8614;48.522;9.206;2023-08-07T10:02:45;9.93;;;9.23;;
16994;SDS011;8614;48.522;9.206;2023-08-07T10:05:13;6.00;;;5.60;;
16994;SDS011;8614;48.522;9.206;2023-08-07T10:07:41;5.10;;;4.70;;
16994;SDS011;8614;48.522;9.206;2023-08-07T10:10:08;3.93;;;3.73;;
16994;SDS011;8614;48.522;9.206;2023-08-07T10:12:36;3.80;;;3.53;;
16994;SDS011;8614;48.522;9.206;2023-08-07T10:15:05;2.90;;;2.70;;
16994;SDS011;8614;48.522;9.206;2023-08-07T10:17:32;2.67;;;2.47;;
16994;SDS011;8614;48.522;9.206;2023-08-07T10:19:59;2.70;;;2.50;;
16994;SDS011;8614;48.522;9.206;2023-08-07T10:22:27;3.07;;;2.87;;
16994;SDS011;8614;48.522;9.206;2023-08-07T10:24:56;4.37;;;4.07;;
16994;SDS011;8614;48.522;9.206;2023-08-07T10:27:26;4.40;;;4.10;;
16994;SDS011;8614;48.522;9.206;2023-08-07T10:29:55;3.60;;;2.77;;
16994;SDS011;8614;48.522;9.206;2023-08-07T10:32:27;2.40;;;2.30;;
16994;SDS011;8614;48.522;9.206;2023-08-07T10:34:54;2.50;;;2.30;;
16994;SDS011;8614;48.522;9.206;2023-08-07T10:40:13;2.43;;;2.33;;
16994;SDS011;8614;48.522;9.206;2023-08-07T10:42:55;4.23;;;3.83;;
16994;SDS011;8614;48.522;9.206;2023-08-07T10:45:23;4.97;;;4.57;;
16994;SDS011;8614;48.522;9.206;2023-08-07T10:47:58;6.67;;;6.27;;
16994;SDS011;8614;48.522;9.206;2023-08-07T10:50:29;3.40;;;2.80;;
16994;SDS011;8614;48.522;9.206;2023-08-07T10:52:59;4.33;;;2.60;;
16994;SDS011;8614;48.522;9.206;2023-08-07T10:55:26;3.00;;;2.50;;
16994;SDS011;8614;48.522;9.206;2023-08-07T10:57:59;3.07;;;2.70;;
16994;SDS011;8614;48.522;9.206;2023-08-07T11:00:26;2.77;;;2.57;;
16994;SDS011;8614;48.522;9.206;2023-08-07T11:02:53;5.17;;;4.77;;
16994;SDS011;8614;48.522;9.206;2023-08-07T11:05:21;2.97;;;2.30;;
16994;SDS011;8614;48.522;9.206;2023-08-07T11:07:50;2.43;;;2.33;;
16994;SDS011;8614;48.522;9.206;2023-08-07T11:10:19;2.07;;;1.80;;
16994;SDS011;8614;48.522;9.206;2023-08-07T11:12:46;2.20;;;2.10;;
16994;SDS011;8614;48.522;9.206;2023-08-07T11:15:14;4.77;;;4.07;;
16994;SDS011;8614;48.522;9.206;2023-08-07T11:17:41;2.50;;;2.20;;
16994;SDS011;8614;48.522;9.206;2023-08-07T11:20:10;2.30;;;2.17;;
16994;SDS011;8614;48.522;9.206;2023-08-07T11:22:39;2.00;;;1.90;;
16994;SDS011;8614;48.522;9.206;2023-08-07T11:25:08;2.43;;;2.17;;
16994;SDS011;8614;48.522;9.206;2023-08-07T11:27:42;2.50;;;2.27;;
16994;SDS011;8614;48.522;9.206;2023-08-07T11:30:10;3.50;;;2.27;;
16994;SDS011;8614;48.522;9.206;2023-08-07T11:32:38;2.40;;;2.20;;
16994;SDS011;8614;48.522;9.206;2023-08-07T11:35:05;4.67;;;2.20;;
16994;SDS011;8614;48.522;9.206;2023-08-07T11:37:33;2.77;;;2.07;;
16994;SDS011;8614;48.522;9.206;2023-08-07T11:40:02;3.17;;;2.40;;
16994;SDS011;8614;48.522;9.206;2023-08-07T11:42:29;4.77;;;1.90;;
16994;SDS011;8614;48.522;9.206;2023-08-07T11:44:56;4.93;;;4.63;;
16994;SDS011;8614;48.522;9.206;2023-08-07T11:47:23;8.20;;;7.53;;
16994;SDS011;8614;48.522;9.206;2023-08-07T11:49:51;6.77;;;6.33;;
16994;SDS011;8614;48.522;9.206;2023-08-07T11:52:18;5.87;;;5.37;;
16994;SDS011;8614;48.522;9.206;2023-08-07T11:54:47;7.40;;;6.90;;
16994;SDS011;8614;48.522;9.206;2023-08-07T11:57:16;3.50;;;3.27;;
16994;SDS011;8614;48.522;9.206;2023-08-07T11:59:47;3.50;;;3.30;;
16994;SDS011;8614;48.522;9.206;2023-08-07T12:02:15;5.17;;;4.87;;
16994;SDS011;8614;48.522;9.206;2023-08-07T12:04:48;3.73;;;3.53;;
16994;SDS011;8614;48.522;9.206;2023-08-07T12:07:17;3.20;;;3.00;;
16994;SDS011;8614;48.522;9.206;2023-08-07T12:09:45;5.10;;;3.90;;
16994;SDS011;8614;48.522;9.206;2023-08-07T12:12:11;7.97;;;7.57;;
16994;SDS011;8614;48.522;9.206;2023-08-07T12:14:39;7.90;;;7.40;;
16994;SDS011;8614;48.522;9.206;2023-08-07T12:17:08;8.10;;;7.53;;
16994;SDS011;8614;48.522;9.206;2023-08-07T12:19:36;8.03;;;7.53;;
16994;SDS011;8614;48.522;9.206;2023-08-07T12:22:05;8.00;;;7.50;;
16994;SDS011;8614;48.522;9.206;2023-08-07T12:24:32;8.07;;;7.57;;
16994;SDS011;8614;48.522;9.206;2023-08-07T12:27:00;7.90;;;7.40;;
16994;SDS011;8614;48.522;9.206;2023-08-07T12:29:27;8.10;;;7.60;;
16994;SDS011;8614;48.522;9.206;2023-08-07T12:31:55;8.80;;;8.20;;
16994;SDS011;8614;48.522;9.206;2023-08-07T12:34:24;8.10;;;7.50;;
16994;SDS011;8614;48.522;9.206;2023-08-07T12:36:51;8.40;;;7.90;;
16994;SDS011;8614;48.522;9.206;2023-08-07T12:39:18;8.30;;;7.80;;
16994;SDS011;8614;48.522;9.206;2023-08-07T12:41:45;8.10;;;7.60;;
16994;SDS011;8614;48.522;9.206;2023-08-07T12:44:13;8.30;;;7.80;;
16994;SDS011;8614;48.522;9.206;2023-08-07T12:46:40;8.10;;;7.60;;
16994;SDS011;8614;48.522;9.206;2023-08-07T12:49:09;8.60;;;8.00;;
16994;SDS011;8614;48.522;9.206;2023-08-07T12:51:36;8.40;;;7.90;;
16994;SDS011;8614;48.522;9.206;2023-08-07T12:54:03;8.10;;;7.53;;
16994;SDS011;8614;48.522;9.206;2023-08-07T12:56:29;7.33;;;6.83;;
16994;SDS011;8614;48.522;9.206;2023-08-07T12:58:56;7.17;;;6.63;;
16994;SDS011;8614;48.522;9.206;2023-08-07T13:01:23;5.10;;;4.80;;
16994;SDS011;8614;48.522;9.206;2023-08-07T13:03:50;4.90;;;3.80;;
16994;SDS011;8614;48.522;9.206;2023-08-07T13:06:18;8.30;;;7.80;;
16994;SDS011;8614;48.522;9.206;2023-08-07T13:08:45;8.20;;;7.57;;
16994;SDS011;8614;48.522;9.206;2023-08-07T13:11:12;8.20;;;7.50;;
16994;SDS011;8614;48.522;9.206;2023-08-07T13:13:39;8.43;;;7.87;;
16994;SDS011;8614;48.522;9.206;2023-08-07T13:16:06;8.33;;;7.63;;
16994;SDS011;8614;48.522;9.206;2023-08-07T13:18:33;8.23;;;7.73;;
16994;SDS011;8614;48.522;9.206;2023-08-07T13:21:00;7.27;;;6.87;;
16994;SDS011;8614;48.522;9.206;2023-08-07T13:23:28;7.80;;;7.30;;
16994;SDS011;8614;48.522;9.206;2023-08-07T13:25:55;8.10;;;7.50;;
16994;SDS011;8614;48.522;9.206;2023-08-07T13:28:22;7.80;;;7.30;;
16994;SDS011;8614;48.522;9.206;2023-08-07T13:30:49;7.53;;;6.93;;
16994;SDS011;8614;48.522;9.206;2023-08-07T13:33:16;8.20;;;7.63;;
16994;SDS011;8614;48.522;9.206;2023-08-07T13:35:45;7.70;;;7.30;;
16994;SDS011;8614;48.522;9.206;2023-08-07T13:38:12;3.43;;;2.30;;
16994;SDS011;8614;48.522;9.206;2023-08-07T13:40:41;3.47;;;2.20;;
16994;SDS011;8614;48.522;9.206;2023-08-07T13:43:09;2.97;;;2.47;;
16994;SDS011;8614;48.522;9.206;2023-08-07T13:45:36;4.60;;;4.30;;
16994;SDS011;8614;48.522;9.206;2023-08-07T13:48:03;4.63;;;4.43;;
16994;SDS011;8614;48.522;9.206;2023-08-07T13:50:31;6.60;;;6.20;;
16994;SDS011;8614;48.522;9.206;2023-08-07T13:52:58;7.80;;;7.30;;
16994;SDS011;8614;48.522;9.206;2023-08-07T13:55:25;8.17;;;7.67;;
16994;SDS011;8614;48.522;9.206;2023-08-07T13:57:53;10.53;;;9.83;;
16994;SDS011;8614;48.522;9.206;2023-08-07T14:00:21;8.63;;;8.07;;
16994;SDS011;8614;48.522;9.206;2023-08-07T14:02:48;8.33;;;7.83;;
16994;SDS011;8614;48.522;9.206;2023-08-07T14:05:15;7.47;;;6.90;;
16994;SDS011;8614;48.522;9.206;2023-08-07T14:07:41;7.90;;;7.30;;
16994;SDS011;8614;48.522;9.206;2023-08-07T14:10:08;8.70;;;8.20;;
16994;SDS011;8614;48.522;9.206;2023-08-07T14:12:35;5.83;;;5.53;;
16994;SDS011;8614;48.522;9.206;2023-08-07T14:15:03;8.50;;;7.90;;
16994;SDS011;8614;48.522;9.206;2023-08-07T14:17:31;7.40;;;7.00;;
16994;SDS011;8614;48.522;9.206;2023-08-07T14:19:57;7.43;;;6.93;;
16994;SDS011;8614;48.522;9.206;2023-08-07T14:22:24;8.00;;;7.50;;
16994;SDS011;8614;48.522;9.206;2023-08-07T14:24:51;7.97;;;7.37;;
16994;SDS011;8614;48.522;9.206;2023-08-07T14:27:18;7.30;;;6.80;;
16994;SDS011;8614;48.522;9.206;2023-08-07T14:29:44;7.73;;;7.20;;
16994;SDS011;8614;48.522;9.206;2023-08-07T14:32:13;7.60;;;7.10;;
16994;SDS011;8614;48.522;9.206;2023-08-07T14:34:39;7.07;;;6.63;;
16994;SDS011;8614;48.522;9.206;2023-08-07T14:37:06;6.80;;;6.30;;
16994;SDS011;8614;48.522;9.206;2023-08-07T14:39:33;7.30;;;6.90;;
16994;SDS011;8614;48.522;9.206;2023-08-07T14:42:00;6.40;;;6.00;;
16994;SDS011;8614;48.522;9.206;2023-08-07T14:44:26;7.40;;;6.90;;
16994;SDS011;8614;48.522;9.206;2023-08-07T14:46:54;7.67;;;7.07;;
16994;SDS011;8614;48.522;9.206;2023-08-07T14:49:22;7.80;;;7.20;;
16994;SDS011;8614;48.522;9.206;2023-08-07T14:51:49;8.00;;;7.30;;
16994;SDS011;8614;48.522;9.206;2023-08-07T14:54:16;7.33;;;6.83;;
16994;SDS011;8614;48.522;9.206;2023-08-07T14:56:43;6.97;;;6.37;;
16994;SDS011;8614;48.522;9.206;2023-08-07T14:59:09;8.80;;;8.20;;
16994;SDS011;8614;48.522;9.206;2023-08-07T15:01:36;9.17;;;8.47;;
16994;SDS011;8614;48.522;9.206;2023-08-07T15:04:03;8.10;;;7.60;;